Time;durP1;ratioP1;P1;durP2;ratioP2;P2;SDS_P1;SDS_P2;PMS_P1;PMS_P2;Temp;Humidity;BMP_temperature;BMP_pressure;BME280_temperature;BME280_humidity;BME280_pressure;Samples;Min_cycle;Max_cycle;Signal;HPM_P1;HPM_P2
2024/01/21 00:00:05;;;;;;;12.17;7.97;;;;;;;;;;5052690;28;20401;-62
2024/01/21 00:02:30;;;;;;;10.75;7.25;;;;;;;;;;5052216;28;20779;-62
2024/01/21 00:04:56;;;;;;;11.23;7.63;;;;;;;;;;5053327;28;20976;-62
2024/01/21 00:07:21;;;;;;;12.87;8.13;;;;;;;;;;5052357;28;20386;-62
2024/01/21 00:09:46;;;;;;;12.23;7.80;;;;;;;;;;5052398;28;20428;-62
2024/01/21 00:12:12;;;;;;;12.18;7.75;;;;;;;;;;5052421;28;20393;-62
2024/01/21 00:14:37;;;;;;;11.70;7.60;;;;;;;;;;5052554;28;20527;-62
2024/01/21 00:17:04;;;;;;;11.07;7.27;;;;;;;;;;5051637;28;20389;-62
2024/01/21 00:19:30;;;;;;;11.07;7.40;;;;;;;;;;5052926;28;20390;-61
2024/01/21 00:21:55;;;;;;;10.97;7.03;;;;;;;;;;5034062;28;20397;-62
2024/01/21 00:24:20;;;;;;;11.07;7.20;;;;;;;;;;5052132;28;20467;-62
2024/01/21 00:26:46;;;;;;;10.70;7.00;;;;;;;;;;5052654;28;20401;-62
2024/01/21 00:29:11;;;;;;;11.57;7.50;;;;;;;;;;5051534;28;20404;-62
2024/01/21 00:31:36;;;;;;;11.70;7.40;;;;;;;;;;5052302;28;20405;-62
2024/01/21 00:34:02;;;;;;;10.73;7.07;;;;;;;;;;5051852;28;20393;-63
2024/01/21 00:36:27;;;;;;;10.82;7.25;;;;;;;;;;5033489;28;20411;-62
2024/01/21 00:38:53;;;;;;;11.00;7.10;;;;;;;;;;5022487;28;20445;-62
2024/01/21 00:41:19;;;;;;;10.63;7.20;;;;;;;;;;5022544;28;20822;-62
2024/01/21 00:43:44;;;;;;;11.35;7.18;;;;;;;;;;5023678;28;20989;-62
2024/01/21 00:46:10;;;;;;;10.47;7.03;;;;;;;;;;5022301;28;20419;-62
2024/01/21 00:48:35;;;;;;;11.23;7.43;;;;;;;;;;5022432;28;20403;-62
2024/01/21 00:51:00;;;;;;;10.10;7.00;;;;;;;;;;5028394;28;20459;-64
2024/01/21 00:53:26;;;;;;;10.37;7.40;;;;;;;;;;5012771;28;20422;-62
2024/01/21 00:55:51;;;;;;;10.85;7.15;;;;;;;;;;5014651;28;20438;-62
2024/01/21 00:58:16;;;;;;;11.17;7.00;;;;;;;;;;5018753;28;20510;-62
2024/01/21 01:00:42;;;;;;;11.40;7.37;;;;;;;;;;5022768;28;20421;-62
2024/01/21 01:03:07;;;;;;;9.95;6.75;;;;;;;;;;5021714;28;20742;-62
2024/01/21 01:05:32;;;;;;;10.93;7.10;;;;;;;;;;5021591;28;20457;-62
2024/01/21 01:07:58;;;;;;;9.60;6.83;;;;;;;;;;5022092;28;20411;-62
2024/01/21 01:10:23;;;;;;;10.38;6.95;;;;;;;;;;5032019;28;20406;-62
2024/01/21 01:12:49;;;;;;;10.33;6.77;;;;;;;;;;5037695;28;20393;-62
2024/01/21 01:15:14;;;;;;;9.63;6.77;;;;;;;;;;5014068;28;20442;-62
2024/01/21 01:17:39;;;;;;;12.48;7.45;;;;;;;;;;5013861;28;21159;-62
2024/01/21 01:20:05;;;;;;;8.93;6.30;;;;;;;;;;5016372;28;20438;-62
2024/01/21 01:22:30;;;;;;;10.35;7.05;;;;;;;;;;5021740;28;20395;-62
2024/01/21 01:24:56;;;;;;;10.07;6.77;;;;;;;;;;5021812;28;20489;-62
2024/01/21 01:27:21;;;;;;;10.70;7.20;;;;;;;;;;5020115;28;21248;-62
2024/01/21 01:29:46;;;;;;;10.75;6.80;;;;;;;;;;5021648;28;20411;-62
2024/01/21 01:32:11;;;;;;;9.70;6.70;;;;;;;;;;5032787;28;20406;-62
2024/01/21 01:34:38;;;;;;;9.13;6.57;;;;;;;;;;5020657;28;20398;-62
2024/01/21 01:37:04;;;;;;;10.52;6.80;;;;;;;;;;5032462;28;20471;-62
2024/01/21 01:39:29;;;;;;;9.73;6.63;;;;;;;;;;5032237;28;20481;-62
2024/01/21 01:41:55;;;;;;;10.10;6.77;;;;;;;;;;5033851;28;20405;-62
2024/01/21 01:44:20;;;;;;;10.40;6.87;;;;;;;;;;5019424;28;20407;-62
2024/01/21 01:46:45;;;;;;;11.20;7.43;;;;;;;;;;5020597;28;20405;-62
2024/01/21 01:49:10;;;;;;;10.88;6.95;;;;;;;;;;5036137;28;20407;-62
2024/01/21 01:51:36;;;;;;;10.83;7.43;;;;;;;;;;5021234;28;20403;-62
2024/01/21 01:54:01;;;;;;;10.90;7.50;;;;;;;;;;5020458;28;20732;-62
2024/01/21 01:56:27;;;;;;;10.20;7.22;;;;;;;;;;5033114;28;20462;-62
2024/01/21 01:58:52;;;;;;;11.43;7.20;;;;;;;;;;5035045;28;20393;-62
2024/01/21 02:01:17;;;;;;;10.67;6.83;;;;;;;;;;5010477;28;20437;-62
2024/01/21 02:03:42;;;;;;;10.63;7.00;;;;;;;;;;5032064;28;20467;-62
2024/01/21 02:06:08;;;;;;;12.27;7.53;;;;;;;;;;5038460;28;20754;-62
2024/01/21 02:08:33;;;;;;;11.37;7.33;;;;;;;;;;5039438;28;20451;-62
2024/01/21 02:10:58;;;;;;;10.40;6.90;;;;;;;;;;5041057;28;20409;-62
2024/01/21 02:13:24;;;;;;;10.03;7.17;;;;;;;;;;5035611;28;20462;-62
2024/01/21 02:15:49;;;;;;;9.70;6.70;;;;;;;;;;5039575;28;20718;-62
2024/01/21 02:18:14;;;;;;;11.50;7.40;;;;;;;;;;5039818;28;20437;-62
2024/01/21 02:20:39;;;;;;;9.83;6.67;;;;;;;;;;5037595;28;20397;-62
2024/01/21 02:23:07;;;;;;;10.25;7.10;;;;;;;;;;5031122;28;20449;-62
2024/01/21 02:25:32;;;;;;;9.98;6.70;;;;;;;;;;5032796;28;20815;-62
2024/01/21 02:27:57;;;;;;;10.57;7.00;;;;;;;;;;5019439;28;20408;-62
2024/01/21 02:30:22;;;;;;;10.00;6.50;;;;;;;;;;5048465;28;20485;-62
2024/01/21 02:32:48;;;;;;;9.93;6.60;;;;;;;;;;5050619;28;20415;-62
2024/01/21 02:35:13;;;;;;;9.63;6.43;;;;;;;;;;5049845;28;20405;-62
2024/01/21 02:37:40;;;;;;;10.23;6.10;;;;;;;;;;5050992;28;20828;-62
2024/01/21 02:40:05;;;;;;;8.85;6.10;;;;;;;;;;5054233;28;20393;-62
2024/01/21 02:42:30;;;;;;;9.30;5.43;;;;;;;;;;5054804;28;20397;-62
2024/01/21 02:44:56;;;;;;;8.93;5.50;;;;;;;;;;5048814;28;20904;-62
2024/01/21 02:47:23;;;;;;;8.03;5.40;;;;;;;;;;5036321;28;20377;-62
2024/01/21 02:49:48;;;;;;;7.70;5.20;;;;;;;;;;5042156;28;20418;-62
2024/01/21 02:52:13;;;;;;;8.10;5.17;;;;;;;;;;5024709;28;20392;-62
2024/01/21 02:54:39;;;;;;;9.00;5.97;;;;;;;;;;5024587;28;20767;-62
2024/01/21 02:57:04;;;;;;;7.73;4.83;;;;;;;;;;5023566;28;20403;-62
2024/01/21 02:59:29;;;;;;;7.90;4.90;;;;;;;;;;5024505;28;20395;-62
2024/01/21 03:01:54;;;;;;;8.80;5.10;;;;;;;;;;5024652;28;20442;-62
2024/01/21 03:04:20;;;;;;;6.77;4.57;;;;;;;;;;5020464;28;20395;-62
2024/01/21 03:06:45;;;;;;;8.50;5.00;;;;;;;;;;5016650;28;20441;-62
2024/01/21 03:09:10;;;;;;;8.60;5.13;;;;;;;;;;5015787;28;20418;-62
2024/01/21 03:11:36;;;;;;;8.07;5.03;;;;;;;;;;5018427;28;20457;-62
2024/01/21 03:14:02;;;;;;;8.13;4.95;;;;;;;;;;5038849;28;20403;-63
2024/01/21 03:16:27;;;;;;;7.63;4.70;;;;;;;;;;5029605;28;20404;-62
2024/01/21 03:18:52;;;;;;;8.48;4.85;;;;;;;;;;5042887;28;20397;-62
2024/01/21 03:21:17;;;;;;;8.17;4.73;;;;;;;;;;5043358;28;20753;-62
2024/01/21 03:23:43;;;;;;;7.50;4.90;;;;;;;;;;5037386;28;20841;-62
2024/01/21 03:26:08;;;;;;;7.55;4.68;;;;;;;;;;5022857;28;20411;-62
2024/01/21 03:28:34;;;;;;;7.37;4.70;;;;;;;;;;5016183;28;20407;-62
2024/01/21 03:30:59;;;;;;;7.67;4.73;;;;;;;;;;5016170;28;20812;-62
2024/01/21 03:33:25;;;;;;;8.10;4.87;;;;;;;;;;5015455;28;20482;-62
2024/01/21 03:35:50;;;;;;;7.68;4.50;;;;;;;;;;5042747;28;20696;-62
2024/01/21 03:38:15;;;;;;;7.65;4.63;;;;;;;;;;5042567;28;20745;-62
2024/01/21 03:40:41;;;;;;;7.03;4.30;;;;;;;;;;5042939;28;21085;-62
2024/01/21 03:43:06;;;;;;;7.13;4.50;;;;;;;;;;5042879;28;20484;-63
2024/01/21 03:45:31;;;;;;;7.03;4.50;;;;;;;;;;5024284;28;20751;-62
2024/01/21 03:47:56;;;;;;;7.83;4.67;;;;;;;;;;5023337;28;20395;-62
2024/01/21 03:50:22;;;;;;;7.40;4.57;;;;;;;;;;5016921;28;20431;-62
2024/01/21 03:52:47;;;;;;;6.90;4.03;;;;;;;;;;5034737;28;20954;-62
2024/01/21 03:55:14;;;;;;;6.37;4.07;;;;;;;;;;5033541;28;20439;-62
2024/01/21 03:57:39;;;;;;;6.32;4.10;;;;;;;;;;5040348;28;21258;-62
2024/01/21 04:00:08;;;;;;;7.20;4.40;;;;;;;;;;5041097;28;20397;-63
2024/01/21 04:02:33;;;;;;;7.75;4.28;;;;;;;;;;5025922;28;20391;-62
2024/01/21 04:04:58;;;;;;;6.90;4.23;;;;;;;;;;5023153;28;20747;-62
2024/01/21 04:07:23;;;;;;;8.17;4.40;;;;;;;;;;5040951;28;20462;-62
2024/01/21 04:09:49;;;;;;;6.47;4.17;;;;;;;;;;5042986;28;20540;-62
2024/01/21 04:12:14;;;;;;;7.03;4.50;;;;;;;;;;5039422;28;20804;-62
2024/01/21 04:14:39;;;;;;;7.00;4.33;;;;;;;;;;5019941;28;20525;-62
2024/01/21 04:17:05;;;;;;;7.53;4.23;;;;;;;;;;5014645;28;20396;-62
2024/01/21 04:19:30;;;;;;;7.55;4.45;;;;;;;;;;5037031;28;20417;-62
2024/01/21 04:21:56;;;;;;;6.33;4.10;;;;;;;;;;5041673;28;20436;-62
2024/01/21 04:24:21;;;;;;;7.47;4.20;;;;;;;;;;5041623;28;20908;-62
2024/01/21 04:26:46;;;;;;;6.57;4.53;;;;;;;;;;5042818;28;20470;-62
2024/01/21 04:29:11;;;;;;;7.73;4.70;;;;;;;;;;5040849;28;20466;-62
2024/01/21 04:31:37;;;;;;;8.60;4.47;;;;;;;;;;5025441;28;20841;-62
2024/01/21 04:34:02;;;;;;;8.00;4.90;;;;;;;;;;5025867;28;20794;-62
2024/01/21 04:36:27;;;;;;;8.30;4.85;;;;;;;;;;5044845;28;20433;-62
2024/01/21 04:38:53;;;;;;;7.57;4.67;;;;;;;;;;5052604;28;20450;-62
2024/01/21 04:41:18;;;;;;;7.50;4.90;;;;;;;;;;5051910;28;20394;-62
2024/01/21 04:43:44;;;;;;;7.80;4.63;;;;;;;;;;5030275;28;20410;-62
2024/01/21 04:46:09;;;;;;;7.07;4.70;;;;;;;;;;5051429;28;20477;-62
2024/01/21 04:48:34;;;;;;;8.30;4.80;;;;;;;;;;5052205;28;20421;-62
2024/01/21 04:51:00;;;;;;;7.10;4.73;;;;;;;;;;5051145;28;20888;-62
2024/01/21 04:53:25;;;;;;;7.50;4.60;;;;;;;;;;5052024;28;20381;-62
2024/01/21 04:55:50;;;;;;;7.07;4.50;;;;;;;;;;5051949;28;20390;-62
2024/01/21 04:58:16;;;;;;;7.22;4.57;;;;;;;;;;5050947;28;20860;-62
2024/01/21 05:00:41;;;;;;;7.23;4.60;;;;;;;;;;5051123;28;20402;-62
2024/01/21 05:03:06;;;;;;;7.90;4.80;;;;;;;;;;5051373;28;20409;-62
2024/01/21 05:05:32;;;;;;;7.47;4.90;;;;;;;;;;5051386;28;20896;-62
2024/01/21 05:07:57;;;;;;;8.10;4.90;;;;;;;;;;5034008;28;20967;-62
2024/01/21 05:10:23;;;;;;;9.50;5.00;;;;;;;;;;5050331;28;20408;-62
2024/01/21 05:12:49;;;;;;;7.57;4.47;;;;;;;;;;5051920;28;20393;-62
2024/01/21 05:15:14;;;;;;;6.93;4.40;;;;;;;;;;5051112;28;20401;-62
2024/01/21 05:17:39;;;;;;;7.70;4.40;;;;;;;;;;5051192;28;20489;-62
2024/01/21 05:20:08;;;;;;;7.30;4.60;;;;;;;;;;5051258;28;20412;-62
2024/01/21 05:22:33;;;;;;;10.63;5.05;;;;;;;;;;5051365;28;20420;-62
2024/01/21 05:24:58;;;;;;;7.83;4.53;;;;;;;;;;5032913;28;20900;-62
2024/01/21 05:27:24;;;;;;;7.20;4.70;;;;;;;;;;5051220;28;20923;-62
2024/01/21 05:29:49;;;;;;;6.40;4.40;;;;;;;;;;5051376;28;20397;-62
2024/01/21 05:32:14;;;;;;;6.93;4.20;;;;;;;;;;5050220;28;20433;-62
2024/01/21 05:34:40;;;;;;;7.17;4.37;;;;;;;;;;5051153;28;20389;-62
2024/01/21 05:37:05;;;;;;;7.35;4.47;;;;;;;;;;5050703;28;20485;-62
2024/01/21 05:39:31;;;;;;;7.67;4.50;;;;;;;;;;5050342;28;20381;-62
2024/01/21 05:42:04;;;;;;;7.20;4.03;;;;;;;;;;5050850;28;20386;-62
2024/01/21 05:44:30;;;;;;;7.95;4.50;;;;;;;;;;5033211;28;20390;-62
2024/01/21 05:46:55;;;;;;;6.33;4.17;;;;;;;;;;5050319;28;20456;-62
2024/01/21 05:49:21;;;;;;;7.60;4.30;;;;;;;;;;5050689;28;20386;-62
2024/01/21 05:51:46;;;;;;;7.10;4.17;;;;;;;;;;5051362;28;20753;-62
2024/01/21 05:54:12;;;;;;;6.73;3.80;;;;;;;;;;5049685;28;20405;-62
2024/01/21 05:56:37;;;;;;;6.40;4.03;;;;;;;;;;5032969;28;20734;-62
2024/01/21 05:59:02;;;;;;;7.37;4.23;;;;;;;;;;5050680;28;20400;-62
2024/01/21 06:01:28;;;;;;;6.90;4.30;;;;;;;;;;5050297;28;20382;-62
2024/01/21 06:03:53;;;;;;;6.50;4.20;;;;;;;;;;5050935;28;20965;-62
2024/01/21 06:06:18;;;;;;;6.57;3.90;;;;;;;;;;5050495;28;20400;-62
2024/01/21 06:08:44;;;;;;;6.63;4.20;;;;;;;;;;5048942;28;20889;-62
2024/01/21 06:11:09;;;;;;;7.77;4.30;;;;;;;;;;5015617;28;20413;-62
2024/01/21 06:13:34;;;;;;;6.63;3.97;;;;;;;;;;5028417;28;20391;-62
2024/01/21 06:16:01;;;;;;;7.03;4.35;;;;;;;;;;5012527;28;21177;-62
2024/01/21 06:18:26;;;;;;;8.60;4.38;;;;;;;;;;5028115;28;20398;-62
2024/01/21 06:20:51;;;;;;;6.68;3.92;;;;;;;;;;5020453;28;20430;-62
2024/01/21 06:23:17;;;;;;;8.60;4.17;;;;;;;;;;5019992;28;20425;-62
2024/01/21 06:25:42;;;;;;;7.13;4.37;;;;;;;;;;5020507;28;20407;-62
2024/01/21 06:28:07;;;;;;;6.97;3.73;;;;;;;;;;5019579;28;20401;-63
2024/01/21 06:30:32;;;;;;;7.33;4.50;;;;;;;;;;5040656;28;20496;-62
2024/01/21 06:32:58;;;;;;;6.30;4.03;;;;;;;;;;5018902;28;20432;-62
2024/01/21 06:35:23;;;;;;;7.03;3.97;;;;;;;;;;5028995;28;20467;-62
2024/01/21 06:37:48;;;;;;;7.93;4.30;;;;;;;;;;5012495;28;20438;-62
2024/01/21 06:40:14;;;;;;;5.97;3.72;;;;;;;;;;5015660;28;20763;-62
2024/01/21 06:42:39;;;;;;;6.50;3.87;;;;;;;;;;5021186;28;20401;-62
2024/01/21 06:45:05;;;;;;;7.13;4.00;;;;;;;;;;5030110;28;20418;-62
2024/01/21 06:47:30;;;;;;;6.18;3.90;;;;;;;;;;5020563;28;20422;-62
2024/01/21 06:49:55;;;;;;;6.20;4.00;;;;;;;;;;5020251;28;20914;-62
2024/01/21 06:52:20;;;;;;;6.77;4.03;;;;;;;;;;5019983;28;20514;-62
2024/01/21 06:54:46;;;;;;;6.03;3.63;;;;;;;;;;5039049;28;21216;-62
2024/01/21 06:57:11;;;;;;;7.20;3.83;;;;;;;;;;5011860;28;20438;-62
2024/01/21 06:59:36;;;;;;;7.17;4.23;;;;;;;;;;5012514;28;20497;-62
2024/01/21 07:02:02;;;;;;;6.30;3.97;;;;;;;;;;5013706;28;20403;-62
2024/01/21 07:04:27;;;;;;;8.55;3.83;;;;;;;;;;5019657;28;20453;-62
2024/01/21 07:06:52;;;;;;;6.20;4.10;;;;;;;;;;5020616;28;20411;-62
2024/01/21 07:09:18;;;;;;;6.63;4.20;;;;;;;;;;5019998;28;20394;-62
2024/01/21 07:11:43;;;;;;;7.17;4.00;;;;;;;;;;5019492;28;20883;-62
2024/01/21 07:14:08;;;;;;;6.60;4.13;;;;;;;;;;5019680;28;20550;-62
2024/01/21 07:16:34;;;;;;;8.57;4.37;;;;;;;;;;5020617;28;20754;-62
2024/01/21 07:18:59;;;;;;;6.65;4.20;;;;;;;;;;4996857;28;20407;-62
2024/01/21 07:21:25;;;;;;;8.53;4.80;;;;;;;;;;5022608;28;20874;-62
2024/01/21 07:23:50;;;;;;;8.60;4.93;;;;;;;;;;5048539;28;20415;-62
2024/01/21 07:26:15;;;;;;;7.68;4.20;;;;;;;;;;5052203;28;20400;-61
2024/01/21 07:28:40;;;;;;;6.77;4.30;;;;;;;;;;5053618;28;20451;-62
2024/01/21 07:31:06;;;;;;;7.37;4.73;;;;;;;;;;5052604;28;20401;-62
2024/01/21 07:33:31;;;;;;;6.90;4.40;;;;;;;;;;5053103;28;20397;-62
2024/01/21 07:35:58;;;;;;;7.30;4.55;;;;;;;;;;5054297;28;20423;-64
2024/01/21 07:38:23;;;;;;;7.72;4.63;;;;;;;;;;5052316;28;20389;-63
2024/01/21 07:40:48;;;;;;;7.17;4.40;;;;;;;;;;5053374;28;20412;-63
2024/01/21 07:43:14;;;;;;;7.30;4.38;;;;;;;;;;5052889;28;20409;-64
2024/01/21 07:45:39;;;;;;;7.60;4.80;;;;;;;;;;5052621;28;20948;-64
2024/01/21 07:48:05;;;;;;;10.82;6.45;;;;;;;;;;5052981;28;20417;-64
2024/01/21 07:50:30;;;;;;;15.53;13.90;;;;;;;;;;5053547;28;20404;-64
2024/01/21 07:52:55;;;;;;;8.37;6.13;;;;;;;;;;5052726;28;20410;-63
2024/01/21 07:55:21;;;;;;;11.90;10.48;;;;;;;;;;5052954;28;20393;-63
2024/01/21 07:57:46;;;;;;;9.67;6.63;;;;;;;;;;5052933;28;20901;-63
2024/01/21 08:00:12;;;;;;;13.87;12.10;;;;;;;;;;5052241;28;20472;-63
2024/01/21 08:02:37;;;;;;;8.57;5.35;;;;;;;;;;5053057;28;20459;-63
2024/01/21 08:05:02;;;;;;;7.67;4.70;;;;;;;;;;5052804;28;20493;-64
2024/01/21 08:07:28;;;;;;;15.23;13.73;;;;;;;;;;5052407;28;20888;-63
2024/01/21 08:09:54;;;;;;;9.35;6.38;;;;;;;;;;5052989;28;20420;-64
2024/01/21 08:12:19;;;;;;;11.57;8.77;;;;;;;;;;5052241;28;20403;-64
2024/01/21 08:14:44;;;;;;;8.43;6.60;;;;;;;;;;5052521;28;20489;-63
2024/01/21 08:17:10;;;;;;;7.53;4.97;;;;;;;;;;5052642;28;20947;-63
2024/01/21 08:19:38;;;;;;;9.18;6.38;;;;;;;;;;5052821;28;20397;-64
2024/01/21 08:22:03;;;;;;;9.93;8.80;;;;;;;;;;5033977;28;20398;-65
2024/01/21 08:24:28;;;;;;;8.40;5.30;;;;;;;;;;5052445;28;20389;-63
2024/01/21 08:26:54;;;;;;;7.23;4.63;;;;;;;;;;5051792;28;20406;-63
2024/01/21 08:29:19;;;;;;;8.23;5.07;;;;;;;;;;5050395;28;20756;-64
2024/01/21 08:31:44;;;;;;;8.70;5.22;;;;;;;;;;5052311;28;20410;-64
2024/01/21 08:34:10;;;;;;;9.13;5.30;;;;;;;;;;5052133;28;20405;-64
2024/01/21 08:36:35;;;;;;;8.60;4.95;;;;;;;;;;5051526;28;20397;-61
2024/01/21 08:39:01;;;;;;;13.73;12.30;;;;;;;;;;5052011;28;20398;-62
2024/01/21 08:41:26;;;;;;;7.20;4.90;;;;;;;;;;5051643;28;20426;-61
2024/01/21 08:43:51;;;;;;;8.67;5.60;;;;;;;;;;5051957;28;20397;-64
2024/01/21 08:46:17;;;;;;;9.67;6.43;;;;;;;;;;5051724;28;20412;-62
2024/01/21 08:48:44;;;;;;;7.27;4.33;;;;;;;;;;5051528;28;20875;-62
2024/01/21 08:51:09;;;;;;;7.00;4.80;;;;;;;;;;5051777;28;20414;-62
2024/01/21 08:53:34;;;;;;;8.13;4.73;;;;;;;;;;5052236;28;20397;-62
2024/01/21 08:55:59;;;;;;;8.23;5.07;;;;;;;;;;5051407;28;20413;-61
2024/01/21 08:58:25;;;;;;;7.43;4.40;;;;;;;;;;5051225;28;20903;-61
2024/01/21 09:00:50;;;;;;;7.13;4.30;;;;;;;;;;5052098;28;20389;-62
2024/01/21 09:03:16;;;;;;;7.20;4.50;;;;;;;;;;5050409;28;20476;-62
2024/01/21 09:05:41;;;;;;;7.17;4.33;;;;;;;;;;5052039;28;20389;-64
2024/01/21 09:08:07;;;;;;;8.20;4.80;;;;;;;;;;5051443;28;20401;-64
2024/01/21 09:10:32;;;;;;;6.65;4.35;;;;;;;;;;5051104;28;20905;-64
2024/01/21 09:12:57;;;;;;;6.83;4.47;;;;;;;;;;5051184;28;20925;-62
2024/01/21 09:15:23;;;;;;;7.63;4.70;;;;;;;;;;5051378;28;20393;-63
2024/01/21 09:17:48;;;;;;;8.20;4.43;;;;;;;;;;5051177;28;20432;-64
2024/01/21 09:20:14;;;;;;;7.60;4.37;;;;;;;;;;5044780;28;20769;-64
2024/01/21 09:22:39;;;;;;;7.32;4.50;;;;;;;;;;5051548;28;20408;-63
2024/01/21 09:25:04;;;;;;;9.07;4.50;;;;;;;;;;5048808;28;20473;-64
2024/01/21 09:27:30;;;;;;;7.83;4.20;;;;;;;;;;5050582;28;20394;-64
2024/01/21 09:29:55;;;;;;;7.90;4.53;;;;;;;;;;5051359;28;20508;-64
2024/01/21 09:32:20;;;;;;;7.27;4.27;;;;;;;;;;5050199;28;20401;-64
2024/01/21 09:34:45;;;;;;;7.90;4.40;;;;;;;;;;5051494;28;20421;-65
2024/01/21 09:37:11;;;;;;;7.83;4.80;;;;;;;;;;5051140;28;20877;-65
2024/01/21 09:39:37;;;;;;;7.17;4.40;;;;;;;;;;5070228;28;20396;-65
2024/01/21 09:42:03;;;;;;;8.50;4.50;;;;;;;;;;5070609;28;20396;-65
2024/01/21 09:44:29;;;;;;;7.07;4.25;;;;;;;;;;5065437;28;20412;-65
2024/01/21 09:46:55;;;;;;;7.85;4.80;;;;;;;;;;5031912;28;20397;-63
2024/01/21 09:49:21;;;;;;;6.82;4.22;;;;;;;;;;5032461;28;20393;-64
2024/01/21 09:51:46;;;;;;;7.50;4.57;;;;;;;;;;5049638;28;20418;-64
2024/01/21 09:54:11;;;;;;;7.90;4.45;;;;;;;;;;5050352;28;20398;-63
2024/01/21 09:56:37;;;;;;;6.67;4.27;;;;;;;;;;5050517;28;20876;-64
2024/01/21 09:59:03;;;;;;;6.90;4.33;;;;;;;;;;5031614;28;20413;-65
2024/01/21 10:01:29;;;;;;;7.45;4.40;;;;;;;;;;5050848;28;20419;-64
2024/01/21 10:03:55;;;;;;;6.90;4.30;;;;;;;;;;5033391;28;20402;-63
2024/01/21 10:06:20;;;;;;;8.43;4.53;;;;;;;;;;5048440;28;20385;-62
2024/01/21 10:08:45;;;;;;;7.00;4.40;;;;;;;;;;5032740;28;20896;-65
2024/01/21 10:11:11;;;;;;;7.77;4.20;;;;;;;;;;5050115;28;20413;-62
2024/01/21 10:13:38;;;;;;;8.68;4.45;;;;;;;;;;5049873;28;20384;-63
2024/01/21 10:16:07;;;;;;;8.38;4.30;;;;;;;;;;5050174;28;20410;-63
2024/01/21 10:18:32;;;;;;;7.00;4.63;;;;;;;;;;5050813;28;20469;-62
2024/01/21 10:20:57;;;;;;;8.23;4.60;;;;;;;;;;5049616;28;20401;-62
2024/01/21 10:23:23;;;;;;;6.80;4.60;;;;;;;;;;5049861;28;20484;-63
2024/01/21 10:25:48;;;;;;;7.47;4.70;;;;;;;;;;5050687;28;20410;-63
2024/01/21 10:28:14;;;;;;;6.90;3.93;;;;;;;;;;5031928;28;20398;-62
2024/01/21 10:30:41;;;;;;;8.13;4.32;;;;;;;;;;5050657;28;20939;-63
2024/01/21 10:33:06;;;;;;;7.50;4.47;;;;;;;;;;5032327;28;20447;-63
2024/01/21 10:35:31;;;;;;;8.47;5.07;;;;;;;;;;5049634;28;20424;-62
2024/01/21 10:37:57;;;;;;;7.43;4.60;;;;;;;;;;5050297;28;20404;-63
2024/01/21 10:40:22;;;;;;;8.20;4.93;;;;;;;;;;5050330;28;20405;-63
2024/01/21 10:42:53;;;;;;;8.10;4.63;;;;;;;;;;5032222;28;20451;-62
2024/01/21 10:45:20;;;;;;;9.57;5.25;;;;;;;;;;5032622;28;20741;-63
2024/01/21 10:47:46;;;;;;;9.55;5.80;;;;;;;;;;5032856;28;20492;-63
2024/01/21 10:50:11;;;;;;;7.90;4.80;;;;;;;;;;5031307;28;20837;-62
2024/01/21 10:52:36;;;;;;;6.73;4.90;;;;;;;;;;5032321;28;20824;-63
2024/01/21 10:55:02;;;;;;;8.70;6.38;;;;;;;;;;5031409;28;20404;-63
2024/01/21 10:57:28;;;;;;;14.77;13.35;;;;;;;;;;5032964;28;20381;-62
2024/01/21 10:59:53;;;;;;;8.93;5.33;;;;;;;;;;5053438;28;20810;-62
2024/01/21 11:02:19;;;;;;;8.57;5.20;;;;;;;;;;5035279;28;20463;-63
2024/01/21 11:04:44;;;;;;;7.60;5.38;;;;;;;;;;5054152;28;20405;-62
2024/01/21 11:07:11;;;;;;;16.33;14.23;;;;;;;;;;5053007;28;20420;-62
2024/01/21 11:09:36;;;;;;;7.72;4.63;;;;;;;;;;5053453;28;20401;-63
2024/01/21 11:12:02;;;;;;;9.60;6.40;;;;;;;;;;5053714;28;20455;-63
2024/01/21 11:14:32;;;;;;;14.57;8.20;;;;;;;;;;5036454;28;20466;-63
2024/01/21 11:16:58;;;;;;;9.37;6.83;;;;;;;;;;5053196;28;20496;-63
2024/01/21 11:19:24;;;;;;;9.00;6.17;;;;;;;;;;5053599;28;20480;-63
2024/01/21 11:21:53;;;;;;;9.32;7.22;;;;;;;;;;5053471;28;20496;-63
2024/01/21 11:24:19;;;;;;;10.88;8.50;;;;;;;;;;5034209;28;20405;-65
2024/01/21 11:26:46;;;;;;;10.37;7.10;;;;;;;;;;5053258;28;20962;-63
2024/01/21 11:29:23;;;;;;;9.52;4.80;;;;;;;;;;5052754;28;20385;-62
2024/01/21 11:31:49;;;;;;;9.55;7.03;;;;;;;;;;5052809;28;20405;-63
2024/01/21 11:34:16;;;;;;;10.73;8.13;;;;;;;;;;5052519;28;20398;-62
2024/01/21 11:36:42;;;;;;;11.70;10.17;;;;;;;;;;5035323;28;20462;-63
2024/01/21 11:39:07;;;;;;;7.32;4.63;;;;;;;;;;5052481;28;20885;-64
2024/01/21 11:41:36;;;;;;;10.07;7.43;;;;;;;;;;5053799;28;20389;-63
2024/01/21 11:44:12;;;;;;;11.88;9.77;;;;;;;;;;5052851;28;20400;-64
2024/01/21 11:46:38;;;;;;;11.98;8.35;;;;;;;;;;5035493;28;20393;-63
2024/01/21 11:49:04;;;;;;;19.20;17.17;;;;;;;;;;5053118;28;20480;-64
2024/01/21 11:51:29;;;;;;;9.47;5.70;;;;;;;;;;5034625;28;20397;-63
2024/01/21 11:53:55;;;;;;;10.32;6.13;;;;;;;;;;5053441;28;20420;-62
2024/01/21 11:56:20;;;;;;;7.53;5.33;;;;;;;;;;5052921;28;20405;-62
2024/01/21 11:58:45;;;;;;;8.47;6.67;;;;;;;;;;5052477;28;20393;-64
2024/01/21 12:01:11;;;;;;;8.57;4.97;;;;;;;;;;5052423;28;20404;-63
2024/01/21 12:03:36;;;;;;;7.80;5.10;;;;;;;;;;5035638;28;20393;-63
2024/01/21 12:06:01;;;;;;;7.97;5.10;;;;;;;;;;5051783;28;20401;-64
2024/01/21 12:08:27;;;;;;;7.75;5.10;;;;;;;;;;5052600;28;20409;-63
2024/01/21 12:10:52;;;;;;;11.17;7.93;;;;;;;;;;5046299;28;20423;-63
2024/01/21 12:13:19;;;;;;;8.03;4.73;;;;;;;;;;5030492;28;20910;-62
2024/01/21 12:15:48;;;;;;;8.63;5.60;;;;;;;;;;5021049;28;20462;-63
2024/01/21 12:18:13;;;;;;;7.65;5.47;;;;;;;;;;5021487;28;20754;-63
2024/01/21 12:20:40;;;;;;;8.90;5.50;;;;;;;;;;5024818;28;20906;-62
2024/01/21 12:23:18;;;;;;;8.15;5.10;;;;;;;;;;5031727;28;20727;-64
2024/01/21 12:25:43;;;;;;;8.43;5.18;;;;;;;;;;5028000;28;20413;-63
2024/01/21 12:28:08;;;;;;;8.57;4.83;;;;;;;;;;5026737;28;20404;-64
2024/01/21 12:30:34;;;;;;;7.60;5.00;;;;;;;;;;5030289;28;20716;-64
2024/01/21 12:32:59;;;;;;;8.00;5.00;;;;;;;;;;5010662;28;20415;-64
2024/01/21 12:35:24;;;;;;;8.35;5.18;;;;;;;;;;5006021;28;20525;-63
2024/01/21 12:37:50;;;;;;;8.50;5.00;;;;;;;;;;5019611;28;20466;-62
2024/01/21 12:40:15;;;;;;;8.30;5.37;;;;;;;;;;5020102;28;20478;-62
2024/01/21 12:42:40;;;;;;;7.70;5.03;;;;;;;;;;5022785;28;20395;-63
2024/01/21 12:45:06;;;;;;;8.20;4.97;;;;;;;;;;5028039;28;20395;-64
2024/01/21 12:47:31;;;;;;;9.40;5.77;;;;;;;;;;5029847;28;20390;-61
2024/01/21 12:49:57;;;;;;;11.63;6.10;;;;;;;;;;5026454;28;20925;-62
2024/01/21 12:52:22;;;;;;;8.45;5.20;;;;;;;;;;5026213;28;20437;-65
2024/01/21 12:54:47;;;;;;;9.30;5.43;;;;;;;;;;5026188;28;20414;-63
2024/01/21 12:57:13;;;;;;;11.90;7.03;;;;;;;;;;5026017;28;20403;-64
2024/01/21 12:59:38;;;;;;;8.10;5.20;;;;;;;;;;5018126;28;20822;-63
2024/01/21 13:02:03;;;;;;;8.47;4.93;;;;;;;;;;5017400;28;20392;-63
2024/01/21 13:04:29;;;;;;;9.03;4.90;;;;;;;;;;5019566;28;20786;-63
2024/01/21 13:06:54;;;;;;;8.20;5.00;;;;;;;;;;5025350;28;20409;-63
2024/01/21 13:09:19;;;;;;;8.00;4.83;;;;;;;;;;5025534;28;20408;-63
2024/01/21 13:11:45;;;;;;;8.33;5.17;;;;;;;;;;5027210;28;20483;-63
2024/01/21 13:14:10;;;;;;;7.28;5.05;;;;;;;;;;5027357;28;20484;-64
2024/01/21 13:16:35;;;;;;;9.27;5.50;;;;;;;;;;5026681;28;20398;-64
2024/01/21 13:19:01;;;;;;;7.37;4.60;;;;;;;;;;5026768;28;20399;-64
2024/01/21 13:21:26;;;;;;;10.00;5.10;;;;;;;;;;5021177;28;20762;-64
2024/01/21 13:23:51;;;;;;;9.38;5.47;;;;;;;;;;5017755;28;20469;-64
2024/01/21 13:26:19;;;;;;;8.40;5.33;;;;;;;;;;5019871;28;20411;-64
2024/01/21 13:31:35;;;;;;;8.90;5.43;;;;;;;;;;5025537;28;20477;-63
2024/01/21 13:34:02;;;;;;;8.85;5.40;;;;;;;;;;5025828;28;20862;-66
2024/01/21 13:36:28;;;;;;;9.05;5.43;;;;;;;;;;5025809;28;20411;-64
2024/01/21 13:38:53;;;;;;;9.07;5.93;;;;;;;;;;5043933;28;20397;-63
2024/01/21 13:41:19;;;;;;;9.50;5.47;;;;;;;;;;5036469;28;20402;-64
2024/01/21 13:43:44;;;;;;;8.67;5.30;;;;;;;;;;5022232;28;20441;-64
2024/01/21 13:46:09;;;;;;;9.10;5.50;;;;;;;;;;5018688;28;20409;-64
2024/01/21 13:48:35;;;;;;;9.30;5.60;;;;;;;;;;5018606;28;20391;-63
2024/01/21 13:51:02;;;;;;;9.00;5.33;;;;;;;;;;5021728;28;20416;-65
2024/01/21 13:53:27;;;;;;;8.70;5.47;;;;;;;;;;5009300;28;20466;-63
2024/01/21 13:55:53;;;;;;;8.83;4.90;;;;;;;;;;5029201;28;20826;-63
2024/01/21 13:58:19;;;;;;;9.20;5.60;;;;;;;;;;5027580;28;20905;-64
2024/01/21 14:00:45;;;;;;;9.55;5.40;;;;;;;;;;5026764;28;21072;-63
2024/01/21 14:03:10;;;;;;;8.93;5.43;;;;;;;;;;5025488;28;20486;-64
2024/01/21 14:05:38;;;;;;;9.15;5.25;;;;;;;;;;5024579;28;20403;-63
2024/01/21 14:08:03;;;;;;;8.45;5.15;;;;;;;;;;5000848;28;20391;-64
2024/01/21 14:10:29;;;;;;;8.40;5.30;;;;;;;;;;5020601;28;20408;-64
2024/01/21 14:12:54;;;;;;;8.10;5.10;;;;;;;;;;5022109;28;20407;-63
2024/01/21 14:15:19;;;;;;;11.05;6.13;;;;;;;;;;5025277;28;20479;-64
2024/01/21 14:17:45;;;;;;;9.03;5.23;;;;;;;;;;5026172;28;20748;-63
2024/01/21 14:20:10;;;;;;;10.67;5.37;;;;;;;;;;5024079;28;20414;-64
2024/01/21 14:22:36;;;;;;;8.98;5.22;;;;;;;;;;5026231;28;20494;-63
2024/01/21 14:25:05;;;;;;;7.63;4.83;;;;;;;;;;5026078;28;20455;-64
2024/01/21 14:27:30;;;;;;;8.20;4.75;;;;;;;;;;5026803;28;20402;-63
2024/01/21 14:29:57;;;;;;;9.23;5.27;;;;;;;;;;5017872;28;20419;-63
2024/01/21 14:32:22;;;;;;;8.88;5.10;;;;;;;;;;5016997;28;20786;-63